sensor_id;sensor_type;location;lat;lon;timestamp;P1;durP1;ratioP1;P2;durP2;ratioP2
75367;SDS011;63954;51.948;5.888;2022-12-07T00:01:29;10.23;;;5.75;;
75367;SDS011;63954;51.948;5.888;2022-12-07T00:04:00;14.80;;;7.78;;
75367;SDS011;63954;51.948;5.888;2022-12-07T00:06:31;13.55;;;6.85;;
75367;SDS011;63954;51.948;5.888;2022-12-07T00:08:59;11.40;;;6.70;;
75367;SDS011;63954;51.948;5.888;2022-12-07T00:11:27;9.70;;;5.50;;
75367;SDS011;63954;51.948;5.888;2022-12-07T00:13:55;16.77;;;9.15;;
75367;SDS011;63954;51.948;5.888;2022-12-07T00:16:25;9.75;;;4.75;;
75367;SDS011;63954;51.948;5.888;2022-12-07T00:18:54;12.48;;;6.40;;
75367;SDS011;63954;51.948;5.888;2022-12-07T00:21:27;10.25;;;5.80;;
75367;SDS011;63954;51.948;5.888;2022-12-07T00:23:55;11.13;;;4.82;;
75367;SDS011;63954;51.948;5.888;2022-12-07T00:26:24;12.70;;;6.88;;
75367;SDS011;63954;51.948;5.888;2022-12-07T00:28:54;16.08;;;7.97;;
75367;SDS011;63954;51.948;5.888;2022-12-07T00:31:24;18.38;;;9.80;;
75367;SDS011;63954;51.948;5.888;2022-12-07T00:33:53;18.55;;;9.23;;
75367;SDS011;63954;51.948;5.888;2022-12-07T00:36:21;14.90;;;7.20;;
75367;SDS011;63954;51.948;5.888;2022-12-07T00:38:51;18.23;;;8.90;;
75367;SDS011;63954;51.948;5.888;2022-12-07T00:41:19;12.27;;;4.97;;
75367;SDS011;63954;51.948;5.888;2022-12-07T00:43:48;9.43;;;4.93;;
75367;SDS011;63954;51.948;5.888;2022-12-07T00:46:16;20.88;;;11.32;;
75367;SDS011;63954;51.948;5.888;2022-12-07T00:48:45;16.15;;;8.00;;
75367;SDS011;63954;51.948;5.888;2022-12-07T00:51:13;12.43;;;6.93;;
75367;SDS011;63954;51.948;5.888;2022-12-07T00:53:42;11.10;;;6.20;;
75367;SDS011;63954;51.948;5.888;2022-12-07T00:56:12;15.57;;;8.45;;
75367;SDS011;63954;51.948;5.888;2022-12-07T00:58:40;10.40;;;5.38;;
75367;SDS011;63954;51.948;5.888;2022-12-07T01:01:08;14.40;;;7.45;;
75367;SDS011;63954;51.948;5.888;2022-12-07T01:03:37;15.02;;;7.93;;
75367;SDS011;63954;51.948;5.888;2022-12-07T01:06:05;11.45;;;5.97;;
75367;SDS011;63954;51.948;5.888;2022-12-07T01:08:32;17.17;;;9.60;;
75367;SDS011;63954;51.948;5.888;2022-12-07T01:11:00;15.82;;;7.40;;
75367;SDS011;63954;51.948;5.888;2022-12-07T01:15:59;9.35;;;5.10;;
75367;SDS011;63954;51.948;5.888;2022-12-07T01:18:29;15.65;;;8.07;;
75367;SDS011;63954;51.948;5.888;2022-12-07T01:20:59;12.40;;;5.65;;
75367;SDS011;63954;51.948;5.888;2022-12-07T01:23:27;16.95;;;9.82;;
75367;SDS011;63954;51.948;5.888;2022-12-07T01:25:55;10.55;;;5.85;;
75367;SDS011;63954;51.948;5.888;2022-12-07T01:28:23;18.02;;;9.25;;
75367;SDS011;63954;51.948;5.888;2022-12-07T01:30:56;13.63;;;7.93;;
75367;SDS011;63954;51.948;5.888;2022-12-07T01:35:55;16.65;;;7.68;;
75367;SDS011;63954;51.948;5.888;2022-12-07T01:38:28;11.77;;;6.18;;
75367;SDS011;63954;51.948;5.888;2022-12-07T01:40:56;15.50;;;9.30;;
75367;SDS011;63954;51.948;5.888;2022-12-07T01:43:25;12.88;;;7.03;;
75367;SDS011;63954;51.948;5.888;2022-12-07T01:45:56;13.27;;;7.05;;
75367;SDS011;63954;51.948;5.888;2022-12-07T01:50:53;10.57;;;5.22;;
75367;SDS011;63954;51.948;5.888;2022-12-07T01:53:24;18.05;;;8.63;;
75367;SDS011;63954;51.948;5.888;2022-12-07T01:55:53;12.50;;;6.32;;
75367;SDS011;63954;51.948;5.888;2022-12-07T01:58:22;10.48;;;4.90;;
75367;SDS011;63954;51.948;5.888;2022-12-07T02:00:50;10.18;;;6.20;;
75367;SDS011;63954;51.948;5.888;2022-12-07T02:03:20;12.43;;;7.28;;
75367;SDS011;63954;51.948;5.888;2022-12-07T02:05:51;7.80;;;3.75;;
75367;SDS011;63954;51.948;5.888;2022-12-07T02:08:19;15.38;;;8.80;;
75367;SDS011;63954;51.948;5.888;2022-12-07T02:10:47;11.02;;;5.55;;
75367;SDS011;63954;51.948;5.888;2022-12-07T02:13:15;16.23;;;8.80;;
75367;SDS011;63954;51.948;5.888;2022-12-07T02:15:53;15.18;;;7.80;;
75367;SDS011;63954;51.948;5.888;2022-12-07T02:18:36;13.10;;;7.32;;
75367;SDS011;63954;51.948;5.888;2022-12-07T02:21:16;10.88;;;6.25;;
75367;SDS011;63954;51.948;5.888;2022-12-07T02:24:01;13.50;;;6.63;;
75367;SDS011;63954;51.948;5.888;2022-12-07T02:29:52;9.48;;;5.38;;
75367;SDS011;63954;51.948;5.888;2022-12-07T02:32:25;11.20;;;6.40;;
75367;SDS011;63954;51.948;5.888;2022-12-07T02:34:56;21.27;;;10.50;;
75367;SDS011;63954;51.948;5.888;2022-12-07T02:37:33;14.68;;;6.03;;
75367;SDS011;63954;51.948;5.888;2022-12-07T02:40:07;13.95;;;5.18;;
75367;SDS011;63954;51.948;5.888;2022-12-07T02:42:40;8.23;;;4.88;;
75367;SDS011;63954;51.948;5.888;2022-12-07T02:45:13;8.43;;;4.35;;
75367;SDS011;63954;51.948;5.888;2022-12-07T02:47:43;12.18;;;5.47;;
75367;SDS011;63954;51.948;5.888;2022-12-07T02:50:12;17.77;;;9.10;;
75367;SDS011;63954;51.948;5.888;2022-12-07T02:52:39;11.27;;;5.97;;
75367;SDS011;63954;51.948;5.888;2022-12-07T02:55:07;10.27;;;4.85;;
75367;SDS011;63954;51.948;5.888;2022-12-07T02:57:40;9.13;;;5.30;;
75367;SDS011;63954;51.948;5.888;2022-12-07T03:00:18;14.00;;;5.70;;
75367;SDS011;63954;51.948;5.888;2022-12-07T03:02:49;10.73;;;5.10;;
75367;SDS011;63954;51.948;5.888;2022-12-07T03:08:36;14.77;;;7.20;;
75367;SDS011;63954;51.948;5.888;2022-12-07T03:11:10;11.40;;;5.22;;
75367;SDS011;63954;51.948;5.888;2022-12-07T03:13:41;8.88;;;4.07;;
75367;SDS011;63954;51.948;5.888;2022-12-07T03:16:18;10.88;;;4.93;;
75367;SDS011;63954;51.948;5.888;2022-12-07T03:18:49;8.63;;;4.30;;
75367;SDS011;63954;51.948;5.888;2022-12-07T03:21:21;10.30;;;4.22;;
75367;SDS011;63954;51.948;5.888;2022-12-07T03:23:52;9.85;;;3.47;;
75367;SDS011;63954;51.948;5.888;2022-12-07T03:26:23;10.07;;;5.53;;
75367;SDS011;63954;51.948;5.888;2022-12-07T03:28:56;10.52;;;5.28;;
75367;SDS011;63954;51.948;5.888;2022-12-07T03:31:29;13.07;;;5.53;;
75367;SDS011;63954;51.948;5.888;2022-12-07T03:34:01;11.50;;;4.63;;
75367;SDS011;63954;51.948;5.888;2022-12-07T03:36:35;9.02;;;4.35;;
75367;SDS011;63954;51.948;5.888;2022-12-07T03:39:12;12.45;;;4.45;;
75367;SDS011;63954;51.948;5.888;2022-12-07T03:41:46;9.65;;;4.57;;
75367;SDS011;63954;51.948;5.888;2022-12-07T03:44:13;12.73;;;4.90;;
75367;SDS011;63954;51.948;5.888;2022-12-07T03:49:16;10.35;;;5.97;;
75367;SDS011;63954;51.948;5.888;2022-12-07T03:51:51;11.80;;;4.35;;
75367;SDS011;63954;51.948;5.888;2022-12-07T03:54:23;8.00;;;3.38;;
75367;SDS011;63954;51.948;5.888;2022-12-07T03:56:54;6.68;;;2.47;;
75367;SDS011;63954;51.948;5.888;2022-12-07T03:59:24;11.27;;;3.78;;
75367;SDS011;63954;51.948;5.888;2022-12-07T04:01:55;13.55;;;5.03;;
75367;SDS011;63954;51.948;5.888;2022-12-07T04:04:24;11.68;;;5.70;;
75367;SDS011;63954;51.948;5.888;2022-12-07T04:06:51;14.63;;;6.28;;
75367;SDS011;63954;51.948;5.888;2022-12-07T04:09:19;16.35;;;6.45;;
75367;SDS011;63954;51.948;5.888;2022-12-07T04:11:47;9.85;;;4.32;;
75367;SDS011;63954;51.948;5.888;2022-12-07T04:14:14;9.27;;;3.95;;
75367;SDS011;63954;51.948;5.888;2022-12-07T04:16:46;10.18;;;4.32;;
75367;SDS011;63954;51.948;5.888;2022-12-07T04:19:16;6.07;;;2.40;;
75367;SDS011;63954;51.948;5.888;2022-12-07T04:21:45;8.00;;;3.03;;
75367;SDS011;63954;51.948;5.888;2022-12-07T04:24:13;10.90;;;4.60;;
75367;SDS011;63954;51.948;5.888;2022-12-07T04:26:41;14.57;;;5.38;;
75367;SDS011;63954;51.948;5.888;2022-12-07T04:29:10;9.50;;;5.47;;
75367;SDS011;63954;51.948;5.888;2022-12-07T04:31:37;18.65;;;6.35;;
75367;SDS011;63954;51.948;5.888;2022-12-07T04:34:05;8.45;;;3.80;;
75367;SDS011;63954;51.948;5.888;2022-12-07T04:36:34;6.70;;;2.85;;
75367;SDS011;63954;51.948;5.888;2022-12-07T04:39:02;8.80;;;3.50;;
75367;SDS011;63954;51.948;5.888;2022-12-07T04:41:30;9.40;;;3.67;;
75367;SDS011;63954;51.948;5.888;2022-12-07T04:43:59;9.07;;;4.40;;
75367;SDS011;63954;51.948;5.888;2022-12-07T04:46:28;11.65;;;4.55;;
75367;SDS011;63954;51.948;5.888;2022-12-07T04:48:58;11.30;;;5.32;;
75367;SDS011;63954;51.948;5.888;2022-12-07T04:51:26;8.75;;;4.35;;
75367;SDS011;63954;51.948;5.888;2022-12-07T04:53:57;9.93;;;4.80;;
75367;SDS011;63954;51.948;5.888;2022-12-07T04:56:26;15.52;;;6.10;;
75367;SDS011;63954;51.948;5.888;2022-12-07T04:58:53;13.25;;;7.10;;
75367;SDS011;63954;51.948;5.888;2022-12-07T05:01:21;12.70;;;6.40;;
75367;SDS011;63954;51.948;5.888;2022-12-07T05:03:49;16.05;;;6.97;;
75367;SDS011;63954;51.948;5.888;2022-12-07T05:06:18;11.55;;;4.80;;
75367;SDS011;63954;51.948;5.888;2022-12-07T05:08:45;11.50;;;4.30;;
75367;SDS011;63954;51.948;5.888;2022-12-07T05:11:14;12.57;;;5.68;;
75367;SDS011;63954;51.948;5.888;2022-12-07T05:13:56;13.18;;;5.45;;
75367;SDS011;63954;51.948;5.888;2022-12-07T05:16:23;11.35;;;5.43;;
75367;SDS011;63954;51.948;5.888;2022-12-07T05:18:51;6.90;;;3.25;;
75367;SDS011;63954;51.948;5.888;2022-12-07T05:21:18;11.85;;;4.20;;
75367;SDS011;63954;51.948;5.888;2022-12-07T05:23:45;11.40;;;5.05;;
75367;SDS011;63954;51.948;5.888;2022-12-07T05:26:12;10.13;;;4.43;;
75367;SDS011;63954;51.948;5.888;2022-12-07T05:28:41;10.15;;;5.60;;
75367;SDS011;63954;51.948;5.888;2022-12-07T05:31:08;18.05;;;6.45;;
75367;SDS011;63954;51.948;5.888;2022-12-07T05:33:36;11.40;;;4.80;;
75367;SDS011;63954;51.948;5.888;2022-12-07T05:36:03;13.70;;;6.28;;
75367;SDS011;63954;51.948;5.888;2022-12-07T05:38:33;12.18;;;5.30;;
75367;SDS011;63954;51.948;5.888;2022-12-07T05:41:01;15.45;;;7.20;;
75367;SDS011;63954;51.948;5.888;2022-12-07T05:43:29;15.70;;;6.57;;
75367;SDS011;63954;51.948;5.888;2022-12-07T05:45:58;10.90;;;4.30;;
75367;SDS011;63954;51.948;5.888;2022-12-07T05:48:26;12.00;;;5.95;;
75367;SDS011;63954;51.948;5.888;2022-12-07T05:50:53;15.88;;;6.85;;
75367;SDS011;63954;51.948;5.888;2022-12-07T05:53:20;14.75;;;5.95;;
75367;SDS011;63954;51.948;5.888;2022-12-07T05:55:48;14.48;;;4.60;;
75367;SDS011;63954;51.948;5.888;2022-12-07T05:58:15;10.10;;;4.53;;
75367;SDS011;63954;51.948;5.888;2022-12-07T06:01:01;4.35;;;1.02;;
75367;SDS011;63954;51.948;5.888;2022-12-07T06:03:28;3.88;;;1.15;;
75367;SDS011;63954;51.948;5.888;2022-12-07T06:05:55;6.05;;;2.15;;
75367;SDS011;63954;51.948;5.888;2022-12-07T06:08:22;10.13;;;3.72;;
75367;SDS011;63954;51.948;5.888;2022-12-07T06:10:50;6.85;;;2.60;;
75367;SDS011;63954;51.948;5.888;2022-12-07T06:13:38;7.60;;;2.97;;
75367;SDS011;63954;51.948;5.888;2022-12-07T06:16:06;5.97;;;1.85;;
75367;SDS011;63954;51.948;5.888;2022-12-07T06:18:34;9.63;;;2.95;;
75367;SDS011;63954;51.948;5.888;2022-12-07T06:21:01;6.63;;;2.88;;
75367;SDS011;63954;51.948;5.888;2022-12-07T06:23:30;8.50;;;4.32;;
75367;SDS011;63954;51.948;5.888;2022-12-07T06:25:59;9.27;;;3.85;;
75367;SDS011;63954;51.948;5.888;2022-12-07T06:28:27;10.27;;;3.92;;
75367;SDS011;63954;51.948;5.888;2022-12-07T06:30:56;11.52;;;5.85;;
75367;SDS011;63954;51.948;5.888;2022-12-07T06:33:26;10.65;;;4.63;;
75367;SDS011;63954;51.948;5.888;2022-12-07T06:35:54;13.90;;;5.00;;
75367;SDS011;63954;51.948;5.888;2022-12-07T06:38:21;12.63;;;5.75;;
75367;SDS011;63954;51.948;5.888;2022-12-07T06:40:48;8.52;;;2.60;;
75367;SDS011;63954;51.948;5.888;2022-12-07T06:43:16;8.45;;;4.78;;
75367;SDS011;63954;51.948;5.888;2022-12-07T06:45:43;7.15;;;1.55;;
75367;SDS011;63954;51.948;5.888;2022-12-07T06:48:10;18.38;;;5.10;;
75367;SDS011;63954;51.948;5.888;2022-12-07T06:50:39;15.00;;;4.55;;
75367;SDS011;63954;51.948;5.888;2022-12-07T06:53:06;8.70;;;3.75;;
75367;SDS011;63954;51.948;5.888;2022-12-07T06:55:34;7.95;;;2.15;;
75367;SDS011;63954;51.948;5.888;2022-12-07T06:58:01;6.72;;;1.88;;
75367;SDS011;63954;51.948;5.888;2022-12-07T07:00:29;9.18;;;3.53;;
75367;SDS011;63954;51.948;5.888;2022-12-07T07:02:57;8.57;;;3.25;;
75367;SDS011;63954;51.948;5.888;2022-12-07T07:05:24;7.43;;;3.15;;
75367;SDS011;63954;51.948;5.888;2022-12-07T07:07:53;12.40;;;5.07;;
75367;SDS011;63954;51.948;5.888;2022-12-07T07:10:20;11.88;;;4.68;;
75367;SDS011;63954;51.948;5.888;2022-12-07T07:12:49;12.32;;;4.68;;
75367;SDS011;63954;51.948;5.888;2022-12-07T07:15:19;9.15;;;4.35;;
75367;SDS011;63954;51.948;5.888;2022-12-07T07:17:49;10.35;;;3.63;;
75367;SDS011;63954;51.948;5.888;2022-12-07T07:20:16;8.90;;;3.13;;
75367;SDS011;63954;51.948;5.888;2022-12-07T07:22:44;9.00;;;2.42;;
75367;SDS011;63954;51.948;5.888;2022-12-07T07:25:12;8.52;;;3.47;;
75367;SDS011;63954;51.948;5.888;2022-12-07T07:27:40;8.50;;;3.38;;
75367;SDS011;63954;51.948;5.888;2022-12-07T07:30:07;9.40;;;3.42;;
75367;SDS011;63954;51.948;5.888;2022-12-07T07:32:35;8.15;;;3.25;;
75367;SDS011;63954;51.948;5.888;2022-12-07T07:35:06;7.47;;;2.55;;
75367;SDS011;63954;51.948;5.888;2022-12-07T07:37:34;7.18;;;2.38;;
75367;SDS011;63954;51.948;5.888;2022-12-07T07:40:01;8.75;;;1.98;;
75367;SDS011;63954;51.948;5.888;2022-12-07T07:42:30;4.25;;;0.82;;
75367;SDS011;63954;51.948;5.888;2022-12-07T07:44:58;6.18;;;1.45;;
75367;SDS011;63954;51.948;5.888;2022-12-07T07:47:25;6.57;;;1.55;;
75367;SDS011;63954;51.948;5.888;2022-12-07T07:49:54;7.72;;;1.80;;
75367;SDS011;63954;51.948;5.888;2022-12-07T07:52:25;7.25;;;1.98;;
75367;SDS011;63954;51.948;5.888;2022-12-07T07:54:56;7.45;;;1.88;;
75367;SDS011;63954;51.948;5.888;2022-12-07T07:57:23;7.22;;;1.52;;
75367;SDS011;63954;51.948;5.888;2022-12-07T07:59:52;6.22;;;2.13;;
75367;SDS011;63954;51.948;5.888;2022-12-07T08:02:20;3.88;;;1.42;;
75367;SDS011;63954;51.948;5.888;2022-12-07T08:04:48;8.10;;;2.70;;
75367;SDS011;63954;51.948;5.888;2022-12-07T08:07:16;5.82;;;1.58;;
75367;SDS011;63954;51.948;5.888;2022-12-07T08:09:43;4.90;;;0.88;;
75367;SDS011;63954;51.948;5.888;2022-12-07T08:12:10;9.52;;;3.08;;
75367;SDS011;63954;51.948;5.888;2022-12-07T08:14:38;7.07;;;3.10;;
75367;SDS011;63954;51.948;5.888;2022-12-07T08:17:09;8.82;;;2.95;;
75367;SDS011;63954;51.948;5.888;2022-12-07T08:19:36;10.52;;;3.40;;
75367;SDS011;63954;51.948;5.888;2022-12-07T08:22:04;11.43;;;3.42;;
75367;SDS011;63954;51.948;5.888;2022-12-07T08:24:32;9.52;;;2.92;;
75367;SDS011;63954;51.948;5.888;2022-12-07T08:27:00;9.73;;;1.92;;
75367;SDS011;63954;51.948;5.888;2022-12-07T08:29:28;7.10;;;1.73;;
75367;SDS011;63954;51.948;5.888;2022-12-07T08:31:56;9.20;;;3.30;;
75367;SDS011;63954;51.948;5.888;2022-12-07T08:34:29;11.30;;;2.67;;
75367;SDS011;63954;51.948;5.888;2022-12-07T08:36:56;8.32;;;2.60;;
75367;SDS011;63954;51.948;5.888;2022-12-07T08:39:24;7.57;;;2.75;;
75367;SDS011;63954;51.948;5.888;2022-12-07T08:41:51;9.75;;;2.78;;
75367;SDS011;63954;51.948;5.888;2022-12-07T08:44:18;8.57;;;2.60;;
75367;SDS011;63954;51.948;5.888;2022-12-07T08:46:46;7.00;;;1.83;;
75367;SDS011;63954;51.948;5.888;2022-12-07T08:49:17;4.72;;;0.90;;
75367;SDS011;63954;51.948;5.888;2022-12-07T08:51:50;8.77;;;2.75;;
75367;SDS011;63954;51.948;5.888;2022-12-07T08:54:17;6.78;;;2.28;;
75367;SDS011;63954;51.948;5.888;2022-12-07T08:56:46;6.40;;;1.20;;
75367;SDS011;63954;51.948;5.888;2022-12-07T08:59:15;3.63;;;1.05;;
75367;SDS011;63954;51.948;5.888;2022-12-07T09:01:45;3.67;;;1.20;;
75367;SDS011;63954;51.948;5.888;2022-12-07T09:04:14;6.10;;;1.17;;
75367;SDS011;63954;51.948;5.888;2022-12-07T09:06:42;4.78;;;0.82;;
75367;SDS011;63954;51.948;5.888;2022-12-07T09:09:19;10.05;;;2.22;;
75367;SDS011;63954;51.948;5.888;2022-12-07T09:11:49;8.00;;;2.38;;
75367;SDS011;63954;51.948;5.888;2022-12-07T09:14:18;14.35;;;2.55;;
75367;SDS011;63954;51.948;5.888;2022-12-07T09:16:50;9.68;;;2.45;;
75367;SDS011;63954;51.948;5.888;2022-12-07T09:19:25;10.75;;;2.95;;
75367;SDS011;63954;51.948;5.888;2022-12-07T09:22:09;7.60;;;1.95;;
75367;SDS011;63954;51.948;5.888;2022-12-07T09:24:52;6.40;;;1.55;;
75367;SDS011;63954;51.948;5.888;2022-12-07T09:27:37;9.48;;;1.67;;
75367;SDS011;63954;51.948;5.888;2022-12-07T09:40:41;4.78;;;1.42;;
75367;SDS011;63954;51.948;5.888;2022-12-07T09:43:35;10.93;;;3.42;;
75367;SDS011;63954;51.948;5.888;2022-12-07T09:53:35;7.80;;;2.42;;
75367;SDS011;63954;51.948;5.888;2022-12-07T10:02:34;9.13;;;2.67;;
75367;SDS011;63954;51.948;5.888;2022-12-07T10:05:09;8.20;;;2.10;;
75367;SDS011;63954;51.948;5.888;2022-12-07T10:07:40;10.48;;;2.38;;
75367;SDS011;63954;51.948;5.888;2022-12-07T10:10:12;12.75;;;3.25;;
75367;SDS011;63954;51.948;5.888;2022-12-07T10:12:53;8.55;;;2.60;;
75367;SDS011;63954;51.948;5.888;2022-12-07T10:15:40;7.28;;;2.22;;
75367;SDS011;63954;51.948;5.888;2022-12-07T10:18:19;9.27;;;2.28;;
75367;SDS011;63954;51.948;5.888;2022-12-07T10:21:03;8.75;;;2.42;;
75367;SDS011;63954;51.948;5.888;2022-12-07T10:23:59;9.43;;;1.52;;
75367;SDS011;63954;51.948;5.888;2022-12-07T10:26:28;7.35;;;2.67;;
75367;SDS011;63954;51.948;5.888;2022-12-07T10:29:00;6.43;;;2.10;;
75367;SDS011;63954;51.948;5.888;2022-12-07T10:31:28;6.25;;;1.48;;
75367;SDS011;63954;51.948;5.888;2022-12-07T10:33:56;7.13;;;2.40;;
75367;SDS011;63954;51.948;5.888;2022-12-07T10:38:58;9.50;;;2.38;;
75367;SDS011;63954;51.948;5.888;2022-12-07T10:41:27;7.25;;;1.40;;
75367;SDS011;63954;51.948;5.888;2022-12-07T10:43:54;9.15;;;2.20;;
75367;SDS011;63954;51.948;5.888;2022-12-07T10:55:49;14.43;;;2.60;;
75367;SDS011;63954;51.948;5.888;2022-12-07T10:58:44;7.15;;;1.90;;
75367;SDS011;63954;51.948;5.888;2022-12-07T11:01:22;6.43;;;2.15;;
75367;SDS011;63954;51.948;5.888;2022-12-07T11:04:07;9.63;;;1.65;;
75367;SDS011;63954;51.948;5.888;2022-12-07T11:06:51;10.20;;;1.90;;
75367;SDS011;63954;51.948;5.888;2022-12-07T11:09:41;8.25;;;1.15;;
75367;SDS011;63954;51.948;5.888;2022-12-07T11:12:28;6.57;;;1.15;;
75367;SDS011;63954;51.948;5.888;2022-12-07T11:15:04;4.90;;;1.20;;
75367;SDS011;63954;51.948;5.888;2022-12-07T11:17:59;6.57;;;1.10;;
75367;SDS011;63954;51.948;5.888;2022-12-07T11:20:39;6.55;;;0.93;;
75367;SDS011;63954;51.948;5.888;2022-12-07T11:23:26;6.43;;;0.95;;
75367;SDS011;63954;51.948;5.888;2022-12-07T11:26:17;4.78;;;1.50;;
75367;SDS011;63954;51.948;5.888;2022-12-07T11:28:58;6.45;;;1.80;;
75367;SDS011;63954;51.948;5.888;2022-12-07T11:31:38;5.15;;;1.15;;
75367;SDS011;63954;51.948;5.888;2022-12-07T11:34:18;8.75;;;1.40;;
75367;SDS011;63954;51.948;5.888;2022-12-07T11:36:54;4.93;;;1.00;;
75367;SDS011;63954;51.948;5.888;2022-12-07T11:39:25;8.50;;;1.33;;
75367;SDS011;63954;51.948;5.888;2022-12-07T11:42:00;11.88;;;2.33;;
75367;SDS011;63954;51.948;5.888;2022-12-07T11:47:07;7.97;;;1.02;;
75367;SDS011;63954;51.948;5.888;2022-12-07T11:49:42;7.00;;;1.05;;
75367;SDS011;63954;51.948;5.888;2022-12-07T11:52:14;7.70;;;1.30;;
75367;SDS011;63954;51.948;5.888;2022-12-07T11:54:49;5.47;;;1.15;;
75367;SDS011;63954;51.948;5.888;2022-12-07T11:57:22;8.35;;;1.67;;
75367;SDS011;63954;51.948;5.888;2022-12-07T11:59:57;9.18;;;1.40;;
75367;SDS011;63954;51.948;5.888;2022-12-07T12:02:32;7.28;;;0.90;;
75367;SDS011;63954;51.948;5.888;2022-12-07T12:05:05;6.63;;;1.52;;
75367;SDS011;63954;51.948;5.888;2022-12-07T12:07:44;5.45;;;1.05;;
75367;SDS011;63954;51.948;5.888;2022-12-07T12:10:16;5.38;;;0.88;;
75367;SDS011;63954;51.948;5.888;2022-12-07T12:12:58;4.35;;;0.90;;
75367;SDS011;63954;51.948;5.888;2022-12-07T12:15:43;7.88;;;0.98;;
75367;SDS011;63954;51.948;5.888;2022-12-07T12:18:26;6.70;;;0.77;;
75367;SDS011;63954;51.948;5.888;2022-12-07T12:21:29;5.20;;;0.52;;
75367;SDS011;63954;51.948;5.888;2022-12-07T12:24:00;4.55;;;1.48;;
75367;SDS011;63954;51.948;5.888;2022-12-07T12:26:40;6.28;;;0.65;;
75367;SDS011;63954;51.948;5.888;2022-12-07T12:29:23;6.45;;;0.85;;
75367;SDS011;63954;51.948;5.888;2022-12-07T12:32:13;6.90;;;1.15;;
75367;SDS011;63954;51.948;5.888;2022-12-07T12:34:58;6.43;;;0.93;;
75367;SDS011;63954;51.948;5.888;2022-12-07T12:37:43;6.25;;;1.10;;
75367;SDS011;63954;51.948;5.888;2022-12-07T12:55:48;3.28;;;0.65;;
75367;SDS011;63954;51.948;5.888;2022-12-07T13:01:38;7.72;;;1.42;;
75367;SDS011;63954;51.948;5.888;2022-12-07T13:07:12;8.80;;;1.80;;
75367;SDS011;63954;51.948;5.888;2022-12-07T13:10:00;9.73;;;2.60;;
75367;SDS011;63954;51.948;5.888;2022-12-07T13:16:38;12.70;;;4.35;;
75367;SDS011;63954;51.948;5.888;2022-12-07T13:25:46;8.30;;;2.15;;
75367;SDS011;63954;51.948;5.888;2022-12-07T13:28:35;11.13;;;2.55;;
75367;SDS011;63954;51.948;5.888;2022-12-07T13:31:11;7.90;;;2.50;;
75367;SDS011;63954;51.948;5.888;2022-12-07T13:33:47;8.88;;;2.70;;
75367;SDS011;63954;51.948;5.888;2022-12-07T13:36:23;8.52;;;2.45;;
75367;SDS011;63954;51.948;5.888;2022-12-07T13:38:53;8.68;;;2.42;;
75367;SDS011;63954;51.948;5.888;2022-12-07T13:41:22;9.57;;;3.13;;
75367;SDS011;63954;51.948;5.888;2022-12-07T13:43:52;9.77;;;2.78;;
75367;SDS011;63954;51.948;5.888;2022-12-07T13:46:35;9.10;;;2.88;;
75367;SDS011;63954;51.948;5.888;2022-12-07T13:49:19;7.50;;;2.20;;
75367;SDS011;63954;51.948;5.888;2022-12-07T13:51:52;8.80;;;1.92;;
75367;SDS011;63954;51.948;5.888;2022-12-07T13:54:21;8.35;;;2.50;;
75367;SDS011;63954;51.948;5.888;2022-12-07T13:56:49;8.35;;;1.67;;
75367;SDS011;63954;51.948;5.888;2022-12-07T13:59:18;11.15;;;2.58;;
75367;SDS011;63954;51.948;5.888;2022-12-07T14:01:48;9.45;;;2.03;;
75367;SDS011;63954;51.948;5.888;2022-12-07T14:04:17;5.90;;;1.45;;
75367;SDS011;63954;51.948;5.888;2022-12-07T14:13:22;6.18;;;0.73;;
75367;SDS011;63954;51.948;5.888;2022-12-07T14:22:36;5.57;;;0.57;;
75367;SDS011;63954;51.948;5.888;2022-12-07T14:34:19;4.60;;;0.85;;
75367;SDS011;63954;51.948;5.888;2022-12-07T14:37:06;10.23;;;1.13;;
75367;SDS011;63954;51.948;5.888;2022-12-07T14:39:44;7.10;;;1.27;;
75367;SDS011;63954;51.948;5.888;2022-12-07T14:42:35;3.83;;;0.50;;
75367;SDS011;63954;51.948;5.888;2022-12-07T14:50:33;4.50;;;0.55;;
75367;SDS011;63954;51.948;5.888;2022-12-07T14:53:34;4.45;;;1.15;;
75367;SDS011;63954;51.948;5.888;2022-12-07T14:56:16;4.15;;;0.73;;
75367;SDS011;63954;51.948;5.888;2022-12-07T15:01:59;5.25;;;0.93;;
75367;SDS011;63954;51.948;5.888;2022-12-07T15:05:30;4.03;;;0.38;;
75367;SDS011;63954;51.948;5.888;2022-12-07T15:07:35;4.90;;;0.55;;
75367;SDS011;63954;51.948;5.888;2022-12-07T15:10:03;3.97;;;0.38;;
75367;SDS011;63954;51.948;5.888;2022-12-07T15:12:33;5.60;;;0.70;;
75367;SDS011;63954;51.948;5.888;2022-12-07T15:15:00;5.00;;;0.43;;
75367;SDS011;63954;51.948;5.888;2022-12-07T15:17:30;4.43;;;0.80;;
75367;SDS011;63954;51.948;5.888;2022-12-07T15:19:57;5.00;;;0.55;;
75367;SDS011;63954;51.948;5.888;2022-12-07T15:22:25;6.05;;;0.73;;
75367;SDS011;63954;51.948;5.888;2022-12-07T15:24:52;5.18;;;0.43;;
75367;SDS011;63954;51.948;5.888;2022-12-07T15:27:19;3.33;;;0.65;;
75367;SDS011;63954;51.948;5.888;2022-12-07T15:29:51;4.25;;;0.75;;
75367;SDS011;63954;51.948;5.888;2022-12-07T15:32:19;6.28;;;0.88;;
75367;SDS011;63954;51.948;5.888;2022-12-07T15:34:50;6.75;;;1.00;;
75367;SDS011;63954;51.948;5.888;2022-12-07T15:37:19;6.65;;;0.80;;
75367;SDS011;63954;51.948;5.888;2022-12-07T15:40:02;5.03;;;1.08;;
75367;SDS011;63954;51.948;5.888;2022-12-07T15:42:34;5.22;;;1.10;;
75367;SDS011;63954;51.948;5.888;2022-12-07T15:45:06;7.90;;;1.55;;
75367;SDS011;63954;51.948;5.888;2022-12-07T15:47:39;6.95;;;1.00;;
75367;SDS011;63954;51.948;5.888;2022-12-07T15:50:11;6.40;;;1.27;;
75367;SDS011;63954;51.948;5.888;2022-12-07T15:55:09;4.43;;;0.98;;
75367;SDS011;63954;51.948;5.888;2022-12-07T15:57:37;8.75;;;1.48;;
75367;SDS011;63954;51.948;5.888;2022-12-07T16:00:09;6.30;;;1.40;;
75367;SDS011;63954;51.948;5.888;2022-12-07T16:02:38;5.70;;;0.65;;
75367;SDS011;63954;51.948;5.888;2022-12-07T16:05:05;5.70;;;1.38;;
75367;SDS011;63954;51.948;5.888;2022-12-07T16:07:35;9.85;;;1.45;;
75367;SDS011;63954;51.948;5.888;2022-12-07T16:10:05;6.93;;;1.30;;
75367;SDS011;63954;51.948;5.888;2022-12-07T16:12:33;5.07;;;1.20;;
75367;SDS011;63954;51.948;5.888;2022-12-07T16:15:00;5.60;;;1.42;;
75367;SDS011;63954;51.948;5.888;2022-12-07T16:17:31;5.78;;;1.70;;
75367;SDS011;63954;51.948;5.888;2022-12-07T16:19:58;7.68;;;1.30;;
75367;SDS011;63954;51.948;5.888;2022-12-07T16:22:26;5.60;;;1.63;;
75367;SDS011;63954;51.948;5.888;2022-12-07T16:27:22;5.93;;;1.27;;
75367;SDS011;63954;51.948;5.888;2022-12-07T16:29:50;5.82;;;1.52;;
75367;SDS011;63954;51.948;5.888;2022-12-07T16:32:17;7.68;;;1.88;;
75367;SDS011;63954;51.948;5.888;2022-12-07T16:34:45;5.88;;;1.33;;
75367;SDS011;63954;51.948;5.888;2022-12-07T16:37:13;6.32;;;1.42;;
75367;SDS011;63954;51.948;5.888;2022-12-07T16:39:41;5.68;;;1.10;;
75367;SDS011;63954;51.948;5.888;2022-12-07T16:42:09;5.57;;;0.90;;
75367;SDS011;63954;51.948;5.888;2022-12-07T16:44:36;3.58;;;0.70;;
75367;SDS011;63954;51.948;5.888;2022-12-07T16:47:04;5.25;;;0.85;;
75367;SDS011;63954;51.948;5.888;2022-12-07T16:49:32;4.90;;;0.55;;
75367;SDS011;63954;51.948;5.888;2022-12-07T16:52:03;3.97;;;0.60;;
75367;SDS011;63954;51.948;5.888;2022-12-07T16:54:31;5.60;;;0.93;;
75367;SDS011;63954;51.948;5.888;2022-12-07T16:57:00;4.07;;;1.05;;
75367;SDS011;63954;51.948;5.888;2022-12-07T16:59:37;4.63;;;0.60;;
75367;SDS011;63954;51.948;5.888;2022-12-07T17:02:04;5.90;;;1.05;;
75367;SDS011;63954;51.948;5.888;2022-12-07T17:04:32;4.32;;;1.02;;
75367;SDS011;63954;51.948;5.888;2022-12-07T17:07:12;4.43;;;0.65;;
75367;SDS011;63954;51.948;5.888;2022-12-07T17:09:39;4.40;;;0.80;;
75367;SDS011;63954;51.948;5.888;2022-12-07T17:12:06;5.43;;;1.23;;
75367;SDS011;63954;51.948;5.888;2022-12-07T17:14:34;5.13;;;1.25;;